Reno (UNR), Valley Road, Nevada Weather observations

Data are for observation ending at time listed.
 Day   Time    Ave.   Ave.  Ave.  Vector   Max.    Total    Solar   Rl      Baro.   Ave.  
  of    of     Air    Rel.  Wind   Wind    Wind   Precip.   Rad.    in      Pres.   Soil  
Year   Day     Temp.  Hum.  Speed  Dir.    Gust                                     Temp. 
2014   (PST)    F      %     mph   deg.    mph      in.     W/m2    W/m2     mb.     F   
-----------------------------------------------------------------------------------------
 241   16:40   82.4    17   10.6   252     17.5     0.00      71     428    851.9   80.3
 241   16:50   82.3    17    8.4   255     16.6     0.00     100     428    852.0   80.4
 241   17:00   82.0    18    8.1   257     15.0     0.00      89     426    852.1   80.4
 241   17:10   81.6    18    6.6   264      9.9     0.00      55     423    852.1   80.4
 241   17:20   81.3    18    6.6   268     11.4     0.00      43     427    852.2   80.3
 241   17:30   80.9    18    5.9   267      9.4     0.00      35     428    852.3   80.3
 241   17:40   80.7    18    8.1   266     13.8     0.00      47     425    852.5   80.3
 241   17:50   80.8    18    6.2   269     11.5     0.00     113     420    852.5   80.2
 241   18:00   80.7    18    7.1   257     12.9     0.00      53     420    852.6   80.2
 241   18:10   80.0    19    8.3   262     14.0     0.00      30     416    852.8   80.1
 241   18:20   79.5    19    7.4   265     14.1     0.00      12     413    852.8   80.1
 241   18:30   79.3    19    9.7   261     18.8     0.00       5     412    852.7   80.0
 241   18:40   79.0    19    8.2   268     14.6     0.00       7     405    852.9   79.9
 241   18:50   78.7    19    8.5   268     14.9     0.00       3     401    853.0   79.8
 241   19:00   78.4    19    8.0   250     16.4     0.00       0     399    853.2   79.8
 241   19:10   78.2    19    8.8   257     15.1     0.00       0     398    853.3   79.7
 241   19:20   78.1    18   10.2   253     18.6     0.00       0     398    853.4   79.6
 241   19:30   77.7    19    7.6   270     14.3     0.00       0     392    853.5   79.5
 241   19:40   77.2    19    8.2   282     17.2     0.00       0     376    853.7   79.4
 241   19:50   76.8    19    6.1   289     11.4     0.00       0     376    853.8   79.3
 241   20:00   76.2    20    5.6   290     10.4     0.00       0     373    854.0   79.2
 241   20:10   76.2    20    7.2   278     13.4     0.00       0     373    854.1   79.1
 241   20:20   75.8    21    4.8   290     11.2     0.00       0     372    854.2   79.1
 241   20:30   75.2    22    2.8   240      7.4     0.00       0     375    854.4   79.0
 241   20:40   74.7    23    2.6   206      9.7     0.00       0     372    854.5   78.9
 241   20:50   74.9    23    4.5   198     10.7     0.00       0     374    854.6   78.7
 241   21:00   75.0    23    4.0   154      8.5     0.00       0     374    854.6   78.7
 241   21:10   74.5    24    1.9   222      5.2     0.00       0     371    854.7   78.5
 241   21:20   74.0    25    3.8   290      9.2     0.00       0     370    854.7   78.4
 241   21:30   73.9    25    5.1   292     11.6     0.00       0     370    854.8   78.3
 241   21:40   74.0    24    6.3   286     12.1     0.00       0     367    854.7   78.2
 241   21:50   74.0    24    5.8   282     11.3     0.00       0     363    854.7   78.1
 241   22:00   74.1    24    5.1   272      9.1     0.00       0     363    854.7   78.0
 241   22:10   74.0    24    5.7   267     10.7     0.00       0     363    854.8   77.9
 241   22:20   73.5    24    4.1   272      9.5     0.00       0     363    854.8   77.8
 241   22:30   73.1    25    3.0   272      8.5     0.00       0     366    854.7   77.7
 241   22:40   73.0    25    5.1   269     12.4     0.00       0     362    854.8   77.6
 241   22:50   73.2    25    5.0   226     12.9     0.00       0     360    854.8   77.5
 241   23:00   72.2    26    1.8   132      4.0     0.00       0     366    854.8   77.4
 241   23:10   71.5    26    2.4   356      6.4     0.00       0     376    854.9   77.3
 241   23:20   71.3    27    2.8   191      5.4     0.00       0     377    854.9   77.2
 241   23:30   71.6    26    3.4   197      8.0     0.00       0     374    854.9   77.1
 241   23:40   71.3    27    3.3   194      5.7     0.00       0     371    854.9   77.0
 241   23:50   70.7    28    2.0   200      4.8     0.00       0     384    854.9   76.9
 242    0:00   70.4    28    3.8   159      8.4     0.00       0     389    854.9   76.7
 242    0:10   69.9    30    2.6    92      3.9     0.00       0     390    854.9   76.7
 242    0:20   69.5    30    2.7    99      3.9     0.00       0     388    855.0   76.6
 242    0:30   69.1    30    0.7   185      2.9     0.00       0     394    855.1   76.5
 242    0:40   68.3    33    1.1   252      2.8     0.00       0     392    855.0   76.4
 242    0:50   67.1    35    1.8     5      3.3     0.00       0     389    855.0   76.3
 242    1:00   66.9    34    0.4    71      1.9     0.00       0     387    855.0   76.2
 242    1:10   67.2    35    1.9   277      4.1     0.00       0     380    855.0   76.1
 242    1:20   67.1    36    2.8   232      7.0     0.00       0     379    855.0   76.0
 242    1:30   69.6    29    4.9   273     11.8     0.00       0     382    854.9   75.9
 242    1:40   72.6    25    5.3   273     10.4     0.00       0     387    854.9   75.8
 242    1:50   72.8    25    2.6   230      6.8     0.00       0     390    854.9   75.8
 242    2:00   69.5    30    2.6    63      6.1     0.00       0     384    854.8   75.7
 242    2:10   67.5    33    1.6     5      5.0     0.00       0     376    854.8   75.6
 242    2:20   71.4    25    4.3   278     11.7     0.00       0     380    854.8   75.5
 242    2:30   70.6    28    2.6   160      7.8     0.00       0     383    854.8   75.5
 242    2:40   68.8    31    3.8   183      6.5     0.00       0     379    854.8   75.4
 242    2:50   67.9    33    3.0   149      6.0     0.00       0     366    854.9   75.3
 242    3:00   67.0    34    1.0   331      2.3     0.00       0     354    855.0   75.2
 242    3:10   65.6    36    2.7    23      4.3     0.00       0     344    854.9   75.2
 242    3:20   64.5    38    0.9     2      2.7     0.00       0     343    855.0   75.1
 242    3:30   63.2    42    1.3   333      2.6     0.00       0     340    855.1   75.0
 242    3:40   62.2    43    0.2   304      1.7     0.00       0     337    855.2   75.0
 242    3:50   61.5    44    0.8   356      2.6     0.00       0     332    855.3   74.9
 242    4:00   60.7    46    1.6   336      3.5     0.00       0     329    855.4   74.8
 242    4:10   60.1    47    0.0     0      0.0     0.00       0     327    855.5   74.7
 242    4:20   59.2    52    1.6   286      2.3     0.00       0     324    855.6   74.6
 242    4:30   58.3    51    0.9   317      2.2     0.00       0     321    855.7   74.5
 242    4:40   58.7    51    2.5   339      3.0     0.00       0     321    855.7   74.4
 242    4:50   58.1    52    0.1   310      2.3     0.00       0     321    855.8   74.3
 242    5:00   57.2    53    1.4   288      3.8     0.00       0     322    855.9   74.2
 242    5:10   59.9    44    2.6   297      4.8     0.00       0     322    856.1   74.1
 242    5:20   62.4    37    3.9   330      7.9     0.00       1     325    856.2   74.0
 242    5:30   62.1    39    2.3   137      3.5     0.00       3     326    856.2   73.9
 242    5:40   61.7    39    2.8   242      6.3     0.00       7     324    856.3   73.8
 242    5:50   62.2    38    3.0   163      4.9     0.00      24     325    856.4   73.7
 242    6:00   63.2    37    2.2   181      4.6     0.00      27     325    856.4   73.6
 242    6:10   62.9    40    1.4   267      3.9     0.00      62     326    856.3   73.5
 242    6:20   65.4    38    0.3   323      1.4     0.00     118     327    856.2   73.3
 242    6:30   66.4    39    1.3    11      3.4     0.00     146     330    856.1   73.2
 242    6:40   67.8    36    1.2   114      3.3     0.00     175     335    856.1   73.1
 242    6:50   69.0    33    0.8    65      2.7     0.00     208     336    856.0   73.0
 242    7:00   71.1    30    0.4    33      1.9     0.00     241     339    856.0   73.0
 242    7:10   71.5    30    1.2     7      3.5     0.00     275     344    855.9   72.9
 242    7:20   70.9    29    2.4    26      4.2     0.00     308     347    855.8   72.8
 242    7:30   73.8    26    0.3   108      1.5     0.00     339     350    855.6   72.8
 242    7:40   76.4    25    1.2   171      4.2     0.00     374     358    855.4   72.7
 242    7:50   75.9    25    1.8   169      3.9     0.00     405     362    855.3   72.7
 242    8:00   75.5    26    1.9    95      3.8     0.00     437     364    855.1   72.7
 242    8:10   75.7    26    1.7    84      4.8     0.00     472     365    854.9   72.8
 242    8:20   77.3    25    3.6   176      8.1     0.00     503     371    854.8   72.8
 242    8:30   77.2    25    5.5   261     14.6     0.00     536     375    854.8   72.8
 242    8:40   77.0    25    7.7   199     19.9     0.00     566     374    854.6   72.9
 242    8:50   78.3    24    4.2   207     13.0     0.00     595     374    854.4   73.0
 242    9:00   78.9    24    2.0    92      5.9     0.00     623     378    854.3   73.0
 242    9:10   81.0    23    6.0   205     14.9     0.00     650     384    854.1   73.1
 242    9:20   78.4    25    8.2   258     14.8     0.00     677     382    853.9   73.2
 242    9:30   79.0    25    7.8   243     14.8     0.00     703     380    853.7   73.2
 242    9:40   79.7    24    9.4   241     15.9     0.00     727     382    853.6   73.3
 242    9:50   79.6    23   11.0   238     19.2     0.00     750     378    853.5   73.4
 242   10:00   79.8    22    8.5   237     15.4     0.00     771     377    853.3   73.4
 242   10:10   80.5    22    8.9   255     17.0     0.00     789     380    853.2   73.5
 242   10:20   81.4    20    8.7   232     15.3     0.00     810     382    853.1   73.7
 242   10:30   82.4    20    7.5   242     14.7     0.00     827     385    852.8   73.8
 242   10:40   82.4    19    8.8   229     15.0     0.00     845     383    852.6   74.0
 242   10:50   82.2    19    9.2   236     17.5     0.00     856     381    852.5   74.2
 242   11:00   82.5    19    7.0   239     14.7     0.00     868     387    852.3   74.4
 242   11:10   83.6    18    9.2   230     20.8     0.00     878     391    852.1   74.6
 242   11:20   83.4    18    9.7   236     15.2     0.00     889     389    852.0   74.9
 242   11:30   83.7    16    6.5   258     17.0     0.00     904     389    851.8   75.2
 242   11:40   85.2    16    8.7   219     17.2     0.00     921     393    851.6   75.5
 242   11:50   84.5    15    9.0   265     16.6     0.00     909     393    851.3   75.7
 242   12:00   84.9    15   10.3   265     20.6     0.00     903     395    851.1   76.0
 242   12:10   85.3    14    7.8   255     18.6     0.00     927     401    850.9   76.4
 242   12:20   85.7    14    8.8   254     17.3     0.00     699     406    850.8   76.6
 242   12:30   85.5    14    6.8   257     16.1     0.00     887     410    850.7   76.9
 242   12:40   86.1    14    8.1   248     17.1     0.00     641     412    850.6   77.2
 242   12:50   84.4    14    9.8   230     23.1     0.00     326     405    850.5   77.5
 242   13:00   84.7    15    8.9   235     15.0     0.00     721     394    850.6   77.8
 242   13:10   85.5    14    9.8   245     23.3     0.00     877     396    850.5   78.1
 242   13:20   85.4    15   10.8   244     21.4     0.00     861     396    850.3   78.3
 242   13:30   85.7    15   12.0   227     19.4     0.00     845     396    850.3   78.5
 242   13:40   85.7    15   11.6   228     20.6     0.00     829     396    850.3   78.7
 242   13:50   86.4    15    8.8   233     23.1     0.00     814     396    850.1   78.8
 242   14:00   86.6    14   10.7   225     21.4     0.00     780     399    850.0   79.0
 242   14:10   86.0    14   11.7   230     20.4     0.00     727     398    850.0   79.1
 242   14:20   85.7    15   12.1   226     22.1     0.00     769     397    849.9   79.2
 242   14:30   85.6    15   10.8   243     22.0     0.00     714     398    849.9   79.4
 242   14:40   85.3    16   12.2   237     21.5     0.00     622     396    850.0   79.5
 242   14:50   85.3    16   10.1   250     21.2     0.00     570     397    850.1   79.6
 242   15:00   84.4    15   11.6   266     23.9     0.00     651     394    850.2   79.7
 242   15:10   84.1    15   10.1   284     17.5     0.00     421     390    850.2   79.9
 242   15:20   83.9    16   10.4   266     20.1     0.00     498     393    850.1   80.0
 242   15:30   83.5    16   10.0   284     20.0     0.00     533     392    850.0   80.1
 242   15:40   83.2    16   10.0   279     20.1     0.00     429     387    850.1   80.2
 242   15:50   83.2    17    7.3   268     16.0     0.00     427     390    850.2   80.3
 242   16:00   83.7    17    8.7   242     16.1     0.00     466     393    850.3   80.3
 242   16:10   83.3    16   10.2   229     19.4     0.00     383     390    850.4   80.4
 242   16:20   82.4    17   10.3   247     19.8     0.00     321     386    850.4   80.5
 242   16:30   81.4    17    8.4   234     14.7     0.00     133     386    850.6   80.6

Return to Reno (UNR), Nevada graphs page.


Western Regional Climate Center,wrcc@dri.edu